sensor_id;sensor_type;location;lat;lon;timestamp;temperature;humidity
20740;DHT22;10530;49.968;19.844;2022-12-18T00:02:06;-3.80;99.90
20740;DHT22;10530;49.968;19.844;2022-12-18T00:07:09;-3.90;99.90
20740;DHT22;10530;49.968;19.844;2022-12-18T00:12:12;-3.90;99.90
20740;DHT22;10530;49.968;19.844;2022-12-18T00:17:17;-3.80;99.90
20740;DHT22;10530;49.968;19.844;2022-12-18T00:22:19;-3.90;99.90
20740;DHT22;10530;49.968;19.844;2022-12-18T00:27:22;-3.90;99.90
20740;DHT22;10530;49.968;19.844;2022-12-18T00:32:25;-3.90;99.90
20740;DHT22;10530;49.968;19.844;2022-12-18T00:37:27;-3.80;99.90
20740;DHT22;10530;49.968;19.844;2022-12-18T00:42:30;-3.80;99.90
20740;DHT22;10530;49.968;19.844;2022-12-18T00:47:51;-3.80;99.90
20740;DHT22;10530;49.968;19.844;2022-12-18T00:52:54;-3.90;99.90
20740;DHT22;10530;49.968;19.844;2022-12-18T00:57:57;-3.80;99.90
20740;DHT22;10530;49.968;19.844;2022-12-18T01:02:59;-3.90;99.90
20740;DHT22;10530;49.968;19.844;2022-12-18T01:08:02;-3.90;99.90
20740;DHT22;10530;49.968;19.844;2022-12-18T01:13:05;-3.80;99.90
20740;DHT22;10530;49.968;19.844;2022-12-18T01:18:08;-3.90;99.90
20740;DHT22;10530;49.968;19.844;2022-12-18T01:23:11;-3.90;99.90
20740;DHT22;10530;49.968;19.844;2022-12-18T01:28:14;-3.80;99.90
20740;DHT22;10530;49.968;19.844;2022-12-18T01:33:16;-3.90;99.90
20740;DHT22;10530;49.968;19.844;2022-12-18T01:38:19;-3.90;99.90
20740;DHT22;10530;49.968;19.844;2022-12-18T01:43:22;-3.80;99.90
20740;DHT22;10530;49.968;19.844;2022-12-18T01:48:25;-3.80;99.90
20740;DHT22;10530;49.968;19.844;2022-12-18T01:53:27;-3.80;99.90
20740;DHT22;10530;49.968;19.844;2022-12-18T02:03:44;-3.80;99.90
20740;DHT22;10530;49.968;19.844;2022-12-18T02:14:40;-3.80;99.90
20740;DHT22;10530;49.968;19.844;2022-12-18T02:25:19;-3.80;99.90
20740;DHT22;10530;49.968;19.844;2022-12-18T02:30:24;-3.80;99.90
20740;DHT22;10530;49.968;19.844;2022-12-18T02:35:29;-3.80;99.90
20740;DHT22;10530;49.968;19.844;2022-12-18T02:40:35;-3.80;99.90
20740;DHT22;10530;49.968;19.844;2022-12-18T02:45:57;-3.80;99.90
20740;DHT22;10530;49.968;19.844;2022-12-18T02:56:23;-3.90;99.90
20740;DHT22;10530;49.968;19.844;2022-12-18T03:07:02;-3.80;99.90
20740;DHT22;10530;49.968;19.844;2022-12-18T03:12:18;-3.80;99.90
20740;DHT22;10530;49.968;19.844;2022-12-18T03:17:28;-3.90;99.90
20740;DHT22;10530;49.968;19.844;2022-12-18T03:22:35;-3.90;99.90
20740;DHT22;10530;49.968;19.844;2022-12-18T03:27:44;-3.90;99.90
20740;DHT22;10530;49.968;19.844;2022-12-18T03:33:09;-3.90;99.90
20740;DHT22;10530;49.968;19.844;2022-12-18T03:38:18;-3.90;99.90
20740;DHT22;10530;49.968;19.844;2022-12-18T03:43:45;-3.90;99.90
20740;DHT22;10530;49.968;19.844;2022-12-18T03:49:06;-3.90;99.90
20740;DHT22;10530;49.968;19.844;2022-12-18T03:54:11;-3.90;99.90
20740;DHT22;10530;49.968;19.844;2022-12-18T03:59:24;-3.80;99.90
20740;DHT22;10530;49.968;19.844;2022-12-18T04:04:29;-3.80;99.90
20740;DHT22;10530;49.968;19.844;2022-12-18T04:09:36;-3.80;99.90
20740;DHT22;10530;49.968;19.844;2022-12-18T04:14:41;-3.80;99.90
20740;DHT22;10530;49.968;19.844;2022-12-18T04:19:44;-3.80;99.90
20740;DHT22;10530;49.968;19.844;2022-12-18T04:24:47;-3.80;99.90
20740;DHT22;10530;49.968;19.844;2022-12-18T04:29:58;-3.90;99.90
20740;DHT22;10530;49.968;19.844;2022-12-18T04:35:01;-3.90;99.90
20740;DHT22;10530;49.968;19.844;2022-12-18T04:40:07;-3.90;99.90
20740;DHT22;10530;49.968;19.844;2022-12-18T04:45:15;-3.90;99.90
20740;DHT22;10530;49.968;19.844;2022-12-18T04:50:19;-3.90;99.90
20740;DHT22;10530;49.968;19.844;2022-12-18T04:55:22;-4.00;99.90
20740;DHT22;10530;49.968;19.844;2022-12-18T05:00:25;-4.00;99.90
20740;DHT22;10530;49.968;19.844;2022-12-18T05:05:27;-4.10;99.90
20740;DHT22;10530;49.968;19.844;2022-12-18T05:10:30;-4.10;99.90
20740;DHT22;10530;49.968;19.844;2022-12-18T05:15:39;-4.10;99.90
20740;DHT22;10530;49.968;19.844;2022-12-18T05:20:42;-4.10;99.90
20740;DHT22;10530;49.968;19.844;2022-12-18T05:25:55;-4.10;99.90
20740;DHT22;10530;49.968;19.844;2022-12-18T05:30:59;-4.10;99.90
20740;DHT22;10530;49.968;19.844;2022-12-18T05:36:05;-4.10;99.90
20740;DHT22;10530;49.968;19.844;2022-12-18T05:41:08;-4.00;99.90
20740;DHT22;10530;49.968;19.844;2022-12-18T05:46:14;-4.00;99.90
20740;DHT22;10530;49.968;19.844;2022-12-18T05:51:19;-4.00;99.90
20740;DHT22;10530;49.968;19.844;2022-12-18T05:56:22;-4.00;99.90
20740;DHT22;10530;49.968;19.844;2022-12-18T06:01:26;-4.00;99.90
20740;DHT22;10530;49.968;19.844;2022-12-18T06:06:29;-3.90;99.90
20740;DHT22;10530;49.968;19.844;2022-12-18T06:11:32;-3.90;99.90
20740;DHT22;10530;49.968;19.844;2022-12-18T06:16:35;-3.90;99.90
20740;DHT22;10530;49.968;19.844;2022-12-18T06:21:37;-3.90;99.90
20740;DHT22;10530;49.968;19.844;2022-12-18T06:26:40;-3.90;99.90
20740;DHT22;10530;49.968;19.844;2022-12-18T06:31:43;-3.90;99.90
20740;DHT22;10530;49.968;19.844;2022-12-18T06:36:46;-3.90;99.90
20740;DHT22;10530;49.968;19.844;2022-12-18T06:41:48;-3.90;99.90
20740;DHT22;10530;49.968;19.844;2022-12-18T06:46:51;-3.80;99.90
20740;DHT22;10530;49.968;19.844;2022-12-18T06:51:54;-3.80;99.90
20740;DHT22;10530;49.968;19.844;2022-12-18T06:56:56;-3.70;99.90
20740;DHT22;10530;49.968;19.844;2022-12-18T07:01:59;-3.80;99.90
20740;DHT22;10530;49.968;19.844;2022-12-18T07:07:02;-3.60;99.90
20740;DHT22;10530;49.968;19.844;2022-12-18T07:12:05;-3.60;99.90
20740;DHT22;10530;49.968;19.844;2022-12-18T07:17:09;-3.50;99.90
20740;DHT22;10530;49.968;19.844;2022-12-18T07:22:12;-3.40;99.90
20740;DHT22;10530;49.968;19.844;2022-12-18T07:27:14;-3.40;99.90
20740;DHT22;10530;49.968;19.844;2022-12-18T07:32:17;-3.40;99.90
20740;DHT22;10530;49.968;19.844;2022-12-18T07:37:20;-3.20;99.90
20740;DHT22;10530;49.968;19.844;2022-12-18T07:42:23;-3.00;99.90
20740;DHT22;10530;49.968;19.844;2022-12-18T07:47:35;-3.00;99.90
20740;DHT22;10530;49.968;19.844;2022-12-18T07:52:40;-2.80;99.90
20740;DHT22;10530;49.968;19.844;2022-12-18T07:57:43;-2.70;99.90
20740;DHT22;10530;49.968;19.844;2022-12-18T08:02:58;-2.60;99.90
20740;DHT22;10530;49.968;19.844;2022-12-18T08:08:01;-2.40;99.90
20740;DHT22;10530;49.968;19.844;2022-12-18T08:13:04;-2.30;99.90
20740;DHT22;10530;49.968;19.844;2022-12-18T08:18:07;-2.20;99.90
20740;DHT22;10530;49.968;19.844;2022-12-18T08:23:15;-2.30;99.90
20740;DHT22;10530;49.968;19.844;2022-12-18T08:28:18;-2.20;99.90
20740;DHT22;10530;49.968;19.844;2022-12-18T08:33:20;-1.90;99.90
20740;DHT22;10530;49.968;19.844;2022-12-18T08:38:23;-1.80;99.90
20740;DHT22;10530;49.968;19.844;2022-12-18T08:43:26;-1.60;99.90
20740;DHT22;10530;49.968;19.844;2022-12-18T08:48:50;-1.60;99.90
20740;DHT22;10530;49.968;19.844;2022-12-18T08:53:53;-1.30;99.90
20740;DHT22;10530;49.968;19.844;2022-12-18T08:58:56;-1.20;99.90
20740;DHT22;10530;49.968;19.844;2022-12-18T09:03:59;-1.20;99.90
20740;DHT22;10530;49.968;19.844;2022-12-18T09:09:03;-1.30;99.90
20740;DHT22;10530;49.968;19.844;2022-12-18T09:14:06;-1.10;99.90
20740;DHT22;10530;49.968;19.844;2022-12-18T09:19:09;-1.20;99.90
20740;DHT22;10530;49.968;19.844;2022-12-18T09:24:13;-0.80;99.90
20740;DHT22;10530;49.968;19.844;2022-12-18T09:29:16;-0.60;99.90
20740;DHT22;10530;49.968;19.844;2022-12-18T09:34:20;-0.60;99.90
20740;DHT22;10530;49.968;19.844;2022-12-18T09:39:24;-0.20;99.90
20740;DHT22;10530;49.968;19.844;2022-12-18T09:44:39;-0.40;99.90
20740;DHT22;10530;49.968;19.844;2022-12-18T09:49:53;0.30;99.90
20740;DHT22;10530;49.968;19.844;2022-12-18T09:55:05;1.00;99.90
20740;DHT22;10530;49.968;19.844;2022-12-18T10:00:19;3.10;99.90
20740;DHT22;10530;49.968;19.844;2022-12-18T10:10:46;6.60;64.30
20740;DHT22;10530;49.968;19.844;2022-12-18T10:27:16;9.90;45.30
20740;DHT22;10530;49.968;19.844;2022-12-18T10:32:22;11.40;35.30
20740;DHT22;10530;49.968;19.844;2022-12-18T10:37:27;10.90;36.30
20740;DHT22;10530;49.968;19.844;2022-12-18T10:42:30;11.00;33.30
20740;DHT22;10530;49.968;19.844;2022-12-18T10:47:34;10.50;33.30
20740;DHT22;10530;49.968;19.844;2022-12-18T10:52:36;9.30;35.70
20740;DHT22;10530;49.968;19.844;2022-12-18T10:57:46;10.80;33.30
20740;DHT22;10530;49.968;19.844;2022-12-18T11:02:49;10.50;32.90
20740;DHT22;10530;49.968;19.844;2022-12-18T11:07:52;9.30;35.00
20740;DHT22;10530;49.968;19.844;2022-12-18T11:13:09;8.90;36.50
20740;DHT22;10530;49.968;19.844;2022-12-18T11:18:20;6.80;38.30
20740;DHT22;10530;49.968;19.844;2022-12-18T11:23:26;6.50;42.70
20740;DHT22;10530;49.968;19.844;2022-12-18T11:28:36;7.30;41.30
20740;DHT22;10530;49.968;19.844;2022-12-18T11:33:42;7.80;39.70
20740;DHT22;10530;49.968;19.844;2022-12-18T11:39:18;8.60;37.80
20740;DHT22;10530;49.968;19.844;2022-12-18T11:44:32;8.50;37.40
20740;DHT22;10530;49.968;19.844;2022-12-18T11:49:40;7.90;38.20
20740;DHT22;10530;49.968;19.844;2022-12-18T11:54:43;8.60;35.80
20740;DHT22;10530;49.968;19.844;2022-12-18T12:00:12;8.20;36.90
20740;DHT22;10530;49.968;19.844;2022-12-18T12:16:15;7.60;39.60
20740;DHT22;10530;49.968;19.844;2022-12-18T12:43:00;6.50;47.00
20740;DHT22;10530;49.968;19.844;2022-12-18T12:53:37;4.70;49.80
20740;DHT22;10530;49.968;19.844;2022-12-18T13:04:02;4.40;47.70
20740;DHT22;10530;49.968;19.844;2022-12-18T13:09:06;3.30;51.80
20740;DHT22;10530;49.968;19.844;2022-12-18T13:14:21;2.20;55.80
20740;DHT22;10530;49.968;19.844;2022-12-18T13:19:26;1.30;59.40
20740;DHT22;10530;49.968;19.844;2022-12-18T13:24:31;0.60;65.30
20740;DHT22;10530;49.968;19.844;2022-12-18T13:29:45;0.20;69.60
20740;DHT22;10530;49.968;19.844;2022-12-18T13:34:49;-0.40;82.70
20740;DHT22;10530;49.968;19.844;2022-12-18T13:46:41;-1.30;92.70
20740;DHT22;10530;49.968;19.844;2022-12-18T13:51:10;-1.50;96.20
20740;DHT22;10530;49.968;19.844;2022-12-18T13:56:17;-1.90;99.90
20740;DHT22;10530;49.968;19.844;2022-12-18T14:01:23;-2.30;99.90
20740;DHT22;10530;49.968;19.844;2022-12-18T14:06:26;-2.80;99.90
20740;DHT22;10530;49.968;19.844;2022-12-18T14:11:29;-3.10;99.90
20740;DHT22;10530;49.968;19.844;2022-12-18T14:16:34;-3.30;99.90
20740;DHT22;10530;49.968;19.844;2022-12-18T14:21:38;-3.80;99.90
20740;DHT22;10530;49.968;19.844;2022-12-18T14:26:42;-4.00;99.90
20740;DHT22;10530;49.968;19.844;2022-12-18T14:31:45;-4.30;99.90
20740;DHT22;10530;49.968;19.844;2022-12-18T14:36:53;-4.50;99.90
20740;DHT22;10530;49.968;19.844;2022-12-18T14:41:58;-4.80;99.90
20740;DHT22;10530;49.968;19.844;2022-12-18T14:47:01;-5.10;99.90
20740;DHT22;10530;49.968;19.844;2022-12-18T14:52:06;-5.30;99.90
20740;DHT22;10530;49.968;19.844;2022-12-18T14:57:25;-5.60;99.90
20740;DHT22;10530;49.968;19.844;2022-12-18T15:02:31;-5.50;99.90
20740;DHT22;10530;49.968;19.844;2022-12-18T15:07:51;-5.10;99.90
20740;DHT22;10530;49.968;19.844;2022-12-18T15:18:11;-5.10;99.90
20740;DHT22;10530;49.968;19.844;2022-12-18T15:23:22;-5.20;99.90
20740;DHT22;10530;49.968;19.844;2022-12-18T15:33:40;-5.40;99.90
20740;DHT22;10530;49.968;19.844;2022-12-18T15:38:48;-5.80;99.90
20740;DHT22;10530;49.968;19.844;2022-12-18T15:43:52;-5.90;99.90
20740;DHT22;10530;49.968;19.844;2022-12-18T15:48:56;-6.00;99.90
20740;DHT22;10530;49.968;19.844;2022-12-18T15:54:05;-6.20;99.90
20740;DHT22;10530;49.968;19.844;2022-12-18T15:59:14;-6.30;99.90
20740;DHT22;10530;49.968;19.844;2022-12-18T16:04:19;-6.30;99.90
20740;DHT22;10530;49.968;19.844;2022-12-18T16:09:25;-6.30;99.90
20740;DHT22;10530;49.968;19.844;2022-12-18T16:14:30;-6.50;99.90
20740;DHT22;10530;49.968;19.844;2022-12-18T16:19:33;-6.40;99.90
20740;DHT22;10530;49.968;19.844;2022-12-18T16:24:36;-6.60;99.90
20740;DHT22;10530;49.968;19.844;2022-12-18T16:29:40;-6.90;99.90
20740;DHT22;10530;49.968;19.844;2022-12-18T16:34:43;-7.10;99.90
20740;DHT22;10530;49.968;19.844;2022-12-18T16:39:46;-7.10;99.90
20740;DHT22;10530;49.968;19.844;2022-12-18T16:44:49;-7.20;99.90
20740;DHT22;10530;49.968;19.844;2022-12-18T16:49:52;-7.50;99.90
20740;DHT22;10530;49.968;19.844;2022-12-18T16:54:55;-7.60;99.90
20740;DHT22;10530;49.968;19.844;2022-12-18T16:59:58;-7.70;99.90
20740;DHT22;10530;49.968;19.844;2022-12-18T17:05:06;-7.70;99.90
20740;DHT22;10530;49.968;19.844;2022-12-18T17:10:09;-7.80;99.90
20740;DHT22;10530;49.968;19.844;2022-12-18T17:15:12;-7.80;99.90
20740;DHT22;10530;49.968;19.844;2022-12-18T17:20:16;-8.10;99.90
20740;DHT22;10530;49.968;19.844;2022-12-18T17:25:21;-8.60;99.90
20740;DHT22;10530;49.968;19.844;2022-12-18T17:30:25;-8.60;99.90
20740;DHT22;10530;49.968;19.844;2022-12-18T17:35:28;-8.50;99.90
20740;DHT22;10530;49.968;19.844;2022-12-18T17:40:33;-8.30;99.90
20740;DHT22;10530;49.968;19.844;2022-12-18T17:45:37;-8.00;99.90
20740;DHT22;10530;49.968;19.844;2022-12-18T17:50:40;-7.90;99.90
20740;DHT22;10530;49.968;19.844;2022-12-18T17:55:43;-7.80;99.90
20740;DHT22;10530;49.968;19.844;2022-12-18T18:00:46;-7.70;99.90
20740;DHT22;10530;49.968;19.844;2022-12-18T18:07:58;-7.80;99.90
20740;DHT22;10530;49.968;19.844;2022-12-18T18:13:20;-7.80;99.90
20740;DHT22;10530;49.968;19.844;2022-12-18T18:18:48;-8.00;99.90
20740;DHT22;10530;49.968;19.844;2022-12-18T18:23:51;-8.10;99.90
20740;DHT22;10530;49.968;19.844;2022-12-18T18:28:54;-8.20;99.90
20740;DHT22;10530;49.968;19.844;2022-12-18T18:33:57;-8.10;99.90
20740;DHT22;10530;49.968;19.844;2022-12-18T18:39:00;-8.00;99.90
20740;DHT22;10530;49.968;19.844;2022-12-18T18:44:03;-8.10;99.90
20740;DHT22;10530;49.968;19.844;2022-12-18T18:49:06;-8.10;99.90
20740;DHT22;10530;49.968;19.844;2022-12-18T18:54:09;-8.10;99.90
20740;DHT22;10530;49.968;19.844;2022-12-18T18:59:12;-8.10;99.90
20740;DHT22;10530;49.968;19.844;2022-12-18T19:04:15;-8.10;99.90
20740;DHT22;10530;49.968;19.844;2022-12-18T19:09:17;-8.20;99.90
20740;DHT22;10530;49.968;19.844;2022-12-18T19:14:20;-8.30;99.90
20740;DHT22;10530;49.968;19.844;2022-12-18T19:19:23;-8.70;99.90
20740;DHT22;10530;49.968;19.844;2022-12-18T20:00:28;-10.50;99.90
20740;DHT22;10530;49.968;19.844;2022-12-18T20:05:31;-10.80;99.90
20740;DHT22;10530;49.968;19.844;2022-12-18T20:10:34;-10.90;99.90
20740;DHT22;10530;49.968;19.844;2022-12-18T20:15:37;-10.80;99.90
20740;DHT22;10530;49.968;19.844;2022-12-18T20:20:46;-10.90;99.90
20740;DHT22;10530;49.968;19.844;2022-12-18T20:25:52;-11.00;99.90
20740;DHT22;10530;49.968;19.844;2022-12-18T20:31:03;-11.20;99.90
20740;DHT22;10530;49.968;19.844;2022-12-18T20:36:13;-11.30;99.90
20740;DHT22;10530;49.968;19.844;2022-12-18T20:41:22;-11.20;99.90
20740;DHT22;10530;49.968;19.844;2022-12-18T20:46:25;-10.80;99.90
20740;DHT22;10530;49.968;19.844;2022-12-18T20:51:27;-10.30;99.90
20740;DHT22;10530;49.968;19.844;2022-12-18T20:56:32;-10.50;99.90
20740;DHT22;10530;49.968;19.844;2022-12-18T21:01:34;-10.20;99.90
20740;DHT22;10530;49.968;19.844;2022-12-18T21:06:39;-9.90;99.90
20740;DHT22;10530;49.968;19.844;2022-12-18T21:11:46;-10.10;99.90
20740;DHT22;10530;49.968;19.844;2022-12-18T21:17:07;-10.50;99.90
20740;DHT22;10530;49.968;19.844;2022-12-18T21:22:10;-10.60;99.90
20740;DHT22;10530;49.968;19.844;2022-12-18T21:27:13;-10.60;99.90
20740;DHT22;10530;49.968;19.844;2022-12-18T21:32:19;-10.50;99.90
20740;DHT22;10530;49.968;19.844;2022-12-18T21:37:39;-10.30;99.90
20740;DHT22;10530;49.968;19.844;2022-12-18T21:42:42;-9.70;99.90
20740;DHT22;10530;49.968;19.844;2022-12-18T21:48:04;-9.60;99.90
20740;DHT22;10530;49.968;19.844;2022-12-18T21:53:07;-9.90;99.90
20740;DHT22;10530;49.968;19.844;2022-12-18T21:58:10;-10.60;99.90
20740;DHT22;10530;49.968;19.844;2022-12-18T22:03:13;-11.20;99.90
20740;DHT22;10530;49.968;19.844;2022-12-18T22:08:20;-11.70;99.90
20740;DHT22;10530;49.968;19.844;2022-12-18T22:13:23;-12.20;99.90
20740;DHT22;10530;49.968;19.844;2022-12-18T22:18:25;-12.40;99.90
20740;DHT22;10530;49.968;19.844;2022-12-18T22:23:29;-12.60;99.90
20740;DHT22;10530;49.968;19.844;2022-12-18T22:28:32;-12.40;99.90
20740;DHT22;10530;49.968;19.844;2022-12-18T22:33:53;-12.00;99.90
20740;DHT22;10530;49.968;19.844;2022-12-18T22:38:56;-11.50;99.90
20740;DHT22;10530;49.968;19.844;2022-12-18T22:43:58;-11.60;99.90
20740;DHT22;10530;49.968;19.844;2022-12-18T22:49:01;-11.10;99.90
20740;DHT22;10530;49.968;19.844;2022-12-18T22:54:04;-11.10;99.90
20740;DHT22;10530;49.968;19.844;2022-12-18T22:59:07;-10.90;99.90
20740;DHT22;10530;49.968;19.844;2022-12-18T23:04:10;-10.80;99.90
20740;DHT22;10530;49.968;19.844;2022-12-18T23:09:15;-11.10;99.90
20740;DHT22;10530;49.968;19.844;2022-12-18T23:14:19;-11.80;99.90
20740;DHT22;10530;49.968;19.844;2022-12-18T23:19:22;-12.60;99.90
20740;DHT22;10530;49.968;19.844;2022-12-18T23:24:25;-13.10;99.90
20740;DHT22;10530;49.968;19.844;2022-12-18T23:29:28;-13.50;99.90
20740;DHT22;10530;49.968;19.844;2022-12-18T23:34:30;-13.80;99.90
20740;DHT22;10530;49.968;19.844;2022-12-18T23:39:33;-13.90;99.90
20740;DHT22;10530;49.968;19.844;2022-12-18T23:44:36;-14.10;99.90
20740;DHT22;10530;49.968;19.844;2022-12-18T23:49:38;-14.20;99.90
20740;DHT22;10530;49.968;19.844;2022-12-18T23:54:42;-14.10;99.90
20740;DHT22;10530;49.968;19.844;2022-12-18T23:59:44;-14.20;99.90
